sensor_id;sensor_type;location;lat;lon;timestamp;P1;durP1;ratioP1;P2;durP2;ratioP2
77602;SDS011;66771;52.434;17.056;2023-03-14T00:02:05;7.40;;;4.40;;
77602;SDS011;66771;52.434;17.056;2023-03-14T00:04:35;6.70;;;4.50;;
77602;SDS011;66771;52.434;17.056;2023-03-14T00:07:11;6.50;;;4.00;;
77602;SDS011;66771;52.434;17.056;2023-03-14T00:09:41;6.70;;;3.60;;
77602;SDS011;66771;52.434;17.056;2023-03-14T00:12:11;5.90;;;3.60;;
77602;SDS011;66771;52.434;17.056;2023-03-14T00:14:40;5.70;;;3.30;;
77602;SDS011;66771;52.434;17.056;2023-03-14T00:17:10;5.40;;;3.50;;
77602;SDS011;66771;52.434;17.056;2023-03-14T00:19:49;5.70;;;3.50;;
77602;SDS011;66771;52.434;17.056;2023-03-14T00:22:20;6.20;;;3.10;;
77602;SDS011;66771;52.434;17.056;2023-03-14T00:24:48;4.90;;;3.40;;
77602;SDS011;66771;52.434;17.056;2023-03-14T00:27:22;7.30;;;3.60;;
77602;SDS011;66771;52.434;17.056;2023-03-14T00:29:49;5.60;;;2.80;;
77602;SDS011;66771;52.434;17.056;2023-03-14T00:32:16;3.70;;;2.60;;
77602;SDS011;66771;52.434;17.056;2023-03-14T00:34:43;5.20;;;2.80;;
77602;SDS011;66771;52.434;17.056;2023-03-14T00:37:10;4.10;;;2.90;;
77602;SDS011;66771;52.434;17.056;2023-03-14T00:39:38;4.80;;;3.20;;
77602;SDS011;66771;52.434;17.056;2023-03-14T00:42:08;3.80;;;2.80;;
77602;SDS011;66771;52.434;17.056;2023-03-14T00:44:35;3.40;;;2.60;;
77602;SDS011;66771;52.434;17.056;2023-03-14T00:47:02;6.10;;;3.50;;
77602;SDS011;66771;52.434;17.056;2023-03-14T00:49:28;5.70;;;3.30;;
77602;SDS011;66771;52.434;17.056;2023-03-14T00:51:55;8.40;;;3.40;;
77602;SDS011;66771;52.434;17.056;2023-03-14T00:54:22;5.00;;;2.50;;
77602;SDS011;66771;52.434;17.056;2023-03-14T00:56:49;8.10;;;3.20;;
77602;SDS011;66771;52.434;17.056;2023-03-14T00:59:16;7.90;;;3.40;;
77602;SDS011;66771;52.434;17.056;2023-03-14T01:01:43;7.70;;;3.50;;
77602;SDS011;66771;52.434;17.056;2023-03-14T01:04:13;6.30;;;2.90;;
77602;SDS011;66771;52.434;17.056;2023-03-14T01:06:40;4.60;;;2.20;;
77602;SDS011;66771;52.434;17.056;2023-03-14T01:09:07;4.30;;;2.50;;
77602;SDS011;66771;52.434;17.056;2023-03-14T01:11:34;3.80;;;2.80;;
77602;SDS011;66771;52.434;17.056;2023-03-14T01:14:02;3.90;;;2.30;;
77602;SDS011;66771;52.434;17.056;2023-03-14T01:16:31;2.60;;;1.70;;
77602;SDS011;66771;52.434;17.056;2023-03-14T01:19:01;4.20;;;1.70;;
77602;SDS011;66771;52.434;17.056;2023-03-14T01:21:29;2.70;;;1.70;;
77602;SDS011;66771;52.434;17.056;2023-03-14T01:23:58;1.30;;;1.10;;
77602;SDS011;66771;52.434;17.056;2023-03-14T01:26:27;2.00;;;1.30;;
77602;SDS011;66771;52.434;17.056;2023-03-14T01:28:56;1.50;;;1.20;;
77602;SDS011;66771;52.434;17.056;2023-03-14T01:31:24;2.20;;;1.20;;
77602;SDS011;66771;52.434;17.056;2023-03-14T01:33:51;3.20;;;1.20;;
77602;SDS011;66771;52.434;17.056;2023-03-14T01:36:19;1.40;;;1.20;;
77602;SDS011;66771;52.434;17.056;2023-03-14T01:38:46;2.00;;;1.10;;
77602;SDS011;66771;52.434;17.056;2023-03-14T01:41:15;1.70;;;1.20;;
77602;SDS011;66771;52.434;17.056;2023-03-14T01:43:44;1.40;;;1.00;;
77602;SDS011;66771;52.434;17.056;2023-03-14T01:48:42;1.70;;;0.90;;
77602;SDS011;66771;52.434;17.056;2023-03-14T01:51:29;1.70;;;0.90;;
77602;SDS011;66771;52.434;17.056;2023-03-14T01:54:03;0.70;;;0.60;;
77602;SDS011;66771;52.434;17.056;2023-03-14T01:56:35;1.70;;;1.10;;
77602;SDS011;66771;52.434;17.056;2023-03-14T01:59:04;1.10;;;1.00;;
77602;SDS011;66771;52.434;17.056;2023-03-14T02:01:34;2.40;;;0.90;;
77602;SDS011;66771;52.434;17.056;2023-03-14T02:18:20;2.40;;;1.40;;
77602;SDS011;66771;52.434;17.056;2023-03-14T02:23:32;1.20;;;1.10;;
77602;SDS011;66771;52.434;17.056;2023-03-14T02:26:15;1.40;;;1.30;;
77602;SDS011;66771;52.434;17.056;2023-03-14T02:28:47;1.50;;;1.10;;
77602;SDS011;66771;52.434;17.056;2023-03-14T02:31:15;2.00;;;1.40;;
77602;SDS011;66771;52.434;17.056;2023-03-14T02:33:42;1.40;;;1.30;;
77602;SDS011;66771;52.434;17.056;2023-03-14T02:36:11;3.40;;;2.10;;
77602;SDS011;66771;52.434;17.056;2023-03-14T02:39:03;4.50;;;1.80;;
77602;SDS011;66771;52.434;17.056;2023-03-14T02:41:26;5.30;;;2.10;;
77602;SDS011;66771;52.434;17.056;2023-03-14T02:44:03;2.30;;;2.00;;
77602;SDS011;66771;52.434;17.056;2023-03-14T02:46:31;2.50;;;1.90;;
77602;SDS011;66771;52.434;17.056;2023-03-14T02:49:01;3.00;;;2.30;;
77602;SDS011;66771;52.434;17.056;2023-03-14T02:51:31;3.30;;;2.50;;
77602;SDS011;66771;52.434;17.056;2023-03-14T02:53:59;4.60;;;2.60;;
77602;SDS011;66771;52.434;17.056;2023-03-14T02:56:26;4.30;;;2.70;;
77602;SDS011;66771;52.434;17.056;2023-03-14T02:58:52;4.70;;;2.30;;
77602;SDS011;66771;52.434;17.056;2023-03-14T03:01:35;3.10;;;2.30;;
77602;SDS011;66771;52.434;17.056;2023-03-14T03:04:02;2.90;;;2.10;;
77602;SDS011;66771;52.434;17.056;2023-03-14T03:06:29;3.40;;;2.60;;
77602;SDS011;66771;52.434;17.056;2023-03-14T03:08:56;3.40;;;2.10;;
77602;SDS011;66771;52.434;17.056;2023-03-14T03:11:23;4.80;;;3.20;;
77602;SDS011;66771;52.434;17.056;2023-03-14T03:13:50;4.90;;;3.20;;
77602;SDS011;66771;52.434;17.056;2023-03-14T03:16:17;4.40;;;2.80;;
77602;SDS011;66771;52.434;17.056;2023-03-14T03:18:43;5.80;;;3.40;;
77602;SDS011;66771;52.434;17.056;2023-03-14T03:21:10;5.10;;;2.90;;
77602;SDS011;66771;52.434;17.056;2023-03-14T03:23:37;6.60;;;3.30;;
77602;SDS011;66771;52.434;17.056;2023-03-14T03:26:04;5.70;;;3.50;;
77602;SDS011;66771;52.434;17.056;2023-03-14T03:28:31;6.10;;;3.40;;
77602;SDS011;66771;52.434;17.056;2023-03-14T03:30:58;4.20;;;3.40;;
77602;SDS011;66771;52.434;17.056;2023-03-14T03:33:25;5.70;;;4.00;;
77602;SDS011;66771;52.434;17.056;2023-03-14T03:35:52;3.90;;;3.40;;
77602;SDS011;66771;52.434;17.056;2023-03-14T03:38:23;5.60;;;3.70;;
77602;SDS011;66771;52.434;17.056;2023-03-14T03:40:51;5.00;;;3.90;;
77602;SDS011;66771;52.434;17.056;2023-03-14T03:43:18;5.60;;;3.50;;
77602;SDS011;66771;52.434;17.056;2023-03-14T03:45:46;6.30;;;4.10;;
77602;SDS011;66771;52.434;17.056;2023-03-14T03:48:13;6.80;;;3.80;;
77602;SDS011;66771;52.434;17.056;2023-03-14T03:50:44;7.80;;;3.60;;
77602;SDS011;66771;52.434;17.056;2023-03-14T03:53:12;5.20;;;3.80;;
77602;SDS011;66771;52.434;17.056;2023-03-14T03:55:42;5.90;;;3.50;;
77602;SDS011;66771;52.434;17.056;2023-03-14T03:58:09;4.80;;;3.40;;
77602;SDS011;66771;52.434;17.056;2023-03-14T04:00:36;5.10;;;3.20;;
77602;SDS011;66771;52.434;17.056;2023-03-14T04:03:03;5.50;;;3.80;;
77602;SDS011;66771;52.434;17.056;2023-03-14T04:05:30;6.50;;;3.90;;
77602;SDS011;66771;52.434;17.056;2023-03-14T04:08:02;5.50;;;3.50;;
77602;SDS011;66771;52.434;17.056;2023-03-14T04:10:33;6.50;;;3.30;;
77602;SDS011;66771;52.434;17.056;2023-03-14T04:13:27;5.90;;;3.70;;
77602;SDS011;66771;52.434;17.056;2023-03-14T04:15:55;4.80;;;3.40;;
77602;SDS011;66771;52.434;17.056;2023-03-14T04:18:25;7.20;;;3.80;;
77602;SDS011;66771;52.434;17.056;2023-03-14T04:20:56;5.20;;;3.20;;
77602;SDS011;66771;52.434;17.056;2023-03-14T04:23:29;5.30;;;3.40;;
77602;SDS011;66771;52.434;17.056;2023-03-14T04:25:56;7.10;;;3.90;;
77602;SDS011;66771;52.434;17.056;2023-03-14T04:28:23;5.30;;;3.50;;
77602;SDS011;66771;52.434;17.056;2023-03-14T04:30:50;7.60;;;3.80;;
77602;SDS011;66771;52.434;17.056;2023-03-14T04:33:21;9.00;;;4.10;;
77602;SDS011;66771;52.434;17.056;2023-03-14T04:35:53;6.40;;;3.40;;
77602;SDS011;66771;52.434;17.056;2023-03-14T04:38:21;7.60;;;3.60;;
77602;SDS011;66771;52.434;17.056;2023-03-14T04:40:48;5.70;;;3.80;;
77602;SDS011;66771;52.434;17.056;2023-03-14T04:43:16;6.20;;;3.90;;
77602;SDS011;66771;52.434;17.056;2023-03-14T04:45:57;6.10;;;3.50;;
77602;SDS011;66771;52.434;17.056;2023-03-14T04:48:25;6.70;;;3.50;;
77602;SDS011;66771;52.434;17.056;2023-03-14T04:50:53;4.70;;;3.80;;
77602;SDS011;66771;52.434;17.056;2023-03-14T04:53:19;6.20;;;4.30;;
77602;SDS011;66771;52.434;17.056;2023-03-14T04:55:49;5.30;;;3.90;;
77602;SDS011;66771;52.434;17.056;2023-03-14T04:58:18;8.60;;;4.20;;
77602;SDS011;66771;52.434;17.056;2023-03-14T05:00:46;7.00;;;3.60;;
77602;SDS011;66771;52.434;17.056;2023-03-14T05:03:33;10.40;;;4.40;;
77602;SDS011;66771;52.434;17.056;2023-03-14T05:06:13;16.20;;;4.40;;
77602;SDS011;66771;52.434;17.056;2023-03-14T05:08:52;5.70;;;4.20;;
77602;SDS011;66771;52.434;17.056;2023-03-14T05:11:38;10.10;;;4.10;;
77602;SDS011;66771;52.434;17.056;2023-03-14T05:14:24;7.40;;;4.20;;
77602;SDS011;66771;52.434;17.056;2023-03-14T05:17:14;7.10;;;4.50;;
77602;SDS011;66771;52.434;17.056;2023-03-14T05:19:59;5.50;;;3.80;;
77602;SDS011;66771;52.434;17.056;2023-03-14T05:22:46;7.30;;;4.50;;
77602;SDS011;66771;52.434;17.056;2023-03-14T05:25:24;7.20;;;4.40;;
77602;SDS011;66771;52.434;17.056;2023-03-14T05:28:10;11.40;;;4.10;;
77602;SDS011;66771;52.434;17.056;2023-03-14T05:31:12;8.70;;;4.60;;
77602;SDS011;66771;52.434;17.056;2023-03-14T05:34:08;8.10;;;4.50;;
77602;SDS011;66771;52.434;17.056;2023-03-14T05:36:54;6.60;;;4.50;;
77602;SDS011;66771;52.434;17.056;2023-03-14T05:39:48;10.60;;;4.50;;
77602;SDS011;66771;52.434;17.056;2023-03-14T05:42:35;5.50;;;4.30;;
77602;SDS011;66771;52.434;17.056;2023-03-14T05:45:11;5.70;;;3.80;;
77602;SDS011;66771;52.434;17.056;2023-03-14T05:47:57;7.40;;;4.10;;
77602;SDS011;66771;52.434;17.056;2023-03-14T05:50:39;10.50;;;5.10;;
77602;SDS011;66771;52.434;17.056;2023-03-14T05:53:41;8.20;;;4.70;;
77602;SDS011;66771;52.434;17.056;2023-03-14T05:56:33;6.90;;;4.50;;
77602;SDS011;66771;52.434;17.056;2023-03-14T05:59:12;6.80;;;4.70;;
77602;SDS011;66771;52.434;17.056;2023-03-14T06:02:15;7.70;;;5.20;;
77602;SDS011;66771;52.434;17.056;2023-03-14T06:04:48;8.30;;;4.80;;
77602;SDS011;66771;52.434;17.056;2023-03-14T06:07:15;6.30;;;4.50;;
77602;SDS011;66771;52.434;17.056;2023-03-14T06:09:42;7.20;;;5.00;;
77602;SDS011;66771;52.434;17.056;2023-03-14T06:12:09;7.90;;;4.60;;
77602;SDS011;66771;52.434;17.056;2023-03-14T06:14:40;8.00;;;4.70;;
77602;SDS011;66771;52.434;17.056;2023-03-14T06:17:07;7.10;;;4.40;;
77602;SDS011;66771;52.434;17.056;2023-03-14T06:19:38;7.40;;;4.50;;
77602;SDS011;66771;52.434;17.056;2023-03-14T06:22:05;5.20;;;4.10;;
77602;SDS011;66771;52.434;17.056;2023-03-14T06:24:32;8.80;;;5.10;;
77602;SDS011;66771;52.434;17.056;2023-03-14T06:26:59;7.70;;;5.00;;
77602;SDS011;66771;52.434;17.056;2023-03-14T06:29:29;10.00;;;4.70;;
77602;SDS011;66771;52.434;17.056;2023-03-14T06:31:56;10.60;;;4.40;;
77602;SDS011;66771;52.434;17.056;2023-03-14T06:34:23;11.30;;;4.70;;
77602;SDS011;66771;52.434;17.056;2023-03-14T06:36:50;6.80;;;4.00;;
77602;SDS011;66771;52.434;17.056;2023-03-14T06:39:17;6.90;;;4.00;;
77602;SDS011;66771;52.434;17.056;2023-03-14T06:41:45;6.30;;;3.80;;
77602;SDS011;66771;52.434;17.056;2023-03-14T06:44:12;5.30;;;3.90;;
77602;SDS011;66771;52.434;17.056;2023-03-14T06:46:39;6.20;;;3.70;;
77602;SDS011;66771;52.434;17.056;2023-03-14T06:49:06;6.20;;;3.60;;
77602;SDS011;66771;52.434;17.056;2023-03-14T06:51:33;8.80;;;3.40;;
77602;SDS011;66771;52.434;17.056;2023-03-14T06:54:02;5.90;;;4.00;;
77602;SDS011;66771;52.434;17.056;2023-03-14T06:56:29;5.90;;;3.80;;
77602;SDS011;66771;52.434;17.056;2023-03-14T06:58:56;6.50;;;3.60;;
77602;SDS011;66771;52.434;17.056;2023-03-14T07:01:26;4.90;;;3.40;;
77602;SDS011;66771;52.434;17.056;2023-03-14T07:03:57;7.60;;;3.50;;
77602;SDS011;66771;52.434;17.056;2023-03-14T07:06:24;6.40;;;3.60;;
77602;SDS011;66771;52.434;17.056;2023-03-14T07:08:51;7.40;;;3.70;;
77602;SDS011;66771;52.434;17.056;2023-03-14T07:11:18;6.70;;;3.70;;
77602;SDS011;66771;52.434;17.056;2023-03-14T07:13:46;6.10;;;3.60;;
77602;SDS011;66771;52.434;17.056;2023-03-14T07:16:13;5.70;;;3.70;;
77602;SDS011;66771;52.434;17.056;2023-03-14T07:18:40;7.50;;;3.20;;
77602;SDS011;66771;52.434;17.056;2023-03-14T07:21:07;5.00;;;3.00;;
77602;SDS011;66771;52.434;17.056;2023-03-14T07:23:38;5.50;;;3.40;;
77602;SDS011;66771;52.434;17.056;2023-03-14T07:26:06;6.00;;;3.10;;
77602;SDS011;66771;52.434;17.056;2023-03-14T07:28:34;4.70;;;3.20;;
77602;SDS011;66771;52.434;17.056;2023-03-14T07:31:07;5.30;;;2.80;;
77602;SDS011;66771;52.434;17.056;2023-03-14T07:33:34;4.30;;;2.50;;
77602;SDS011;66771;52.434;17.056;2023-03-14T07:36:02;5.00;;;2.60;;
77602;SDS011;66771;52.434;17.056;2023-03-14T07:38:30;4.70;;;2.70;;
77602;SDS011;66771;52.434;17.056;2023-03-14T07:41:18;4.60;;;2.90;;
77602;SDS011;66771;52.434;17.056;2023-03-14T07:44:12;4.40;;;2.60;;
77602;SDS011;66771;52.434;17.056;2023-03-14T07:46:39;4.40;;;2.30;;
77602;SDS011;66771;52.434;17.056;2023-03-14T07:49:06;4.50;;;2.60;;
77602;SDS011;66771;52.434;17.056;2023-03-14T07:51:33;6.60;;;3.10;;
77602;SDS011;66771;52.434;17.056;2023-03-14T07:54:00;3.60;;;2.50;;
77602;SDS011;66771;52.434;17.056;2023-03-14T07:56:27;5.90;;;2.70;;
77602;SDS011;66771;52.434;17.056;2023-03-14T07:58:53;4.50;;;2.50;;
77602;SDS011;66771;52.434;17.056;2023-03-14T08:01:20;5.60;;;2.70;;
77602;SDS011;66771;52.434;17.056;2023-03-14T08:03:47;8.60;;;2.70;;
77602;SDS011;66771;52.434;17.056;2023-03-14T08:06:13;4.50;;;2.80;;
77602;SDS011;66771;52.434;17.056;2023-03-14T08:08:40;5.90;;;2.90;;
77602;SDS011;66771;52.434;17.056;2023-03-14T08:11:07;8.00;;;2.80;;
77602;SDS011;66771;52.434;17.056;2023-03-14T08:13:37;6.00;;;3.30;;
77602;SDS011;66771;52.434;17.056;2023-03-14T08:16:05;5.40;;;2.70;;
77602;SDS011;66771;52.434;17.056;2023-03-14T08:18:32;5.10;;;2.50;;
77602;SDS011;66771;52.434;17.056;2023-03-14T08:20:59;3.60;;;2.50;;
77602;SDS011;66771;52.434;17.056;2023-03-14T08:23:26;5.10;;;2.50;;
77602;SDS011;66771;52.434;17.056;2023-03-14T08:25:52;3.80;;;2.80;;
77602;SDS011;66771;52.434;17.056;2023-03-14T08:28:19;3.30;;;2.30;;
77602;SDS011;66771;52.434;17.056;2023-03-14T08:30:46;5.40;;;2.30;;
77602;SDS011;66771;52.434;17.056;2023-03-14T08:33:13;4.60;;;2.30;;
77602;SDS011;66771;52.434;17.056;2023-03-14T08:35:40;3.70;;;2.20;;
77602;SDS011;66771;52.434;17.056;2023-03-14T08:38:06;4.50;;;2.20;;
77602;SDS011;66771;52.434;17.056;2023-03-14T08:40:33;3.20;;;1.90;;
77602;SDS011;66771;52.434;17.056;2023-03-14T08:43:00;3.30;;;2.10;;
77602;SDS011;66771;52.434;17.056;2023-03-14T08:45:28;2.50;;;1.80;;
77602;SDS011;66771;52.434;17.056;2023-03-14T08:47:54;3.90;;;1.60;;
77602;SDS011;66771;52.434;17.056;2023-03-14T08:50:21;4.00;;;2.20;;
77602;SDS011;66771;52.434;17.056;2023-03-14T08:52:49;3.20;;;1.70;;
77602;SDS011;66771;52.434;17.056;2023-03-14T08:55:16;2.40;;;1.80;;
77602;SDS011;66771;52.434;17.056;2023-03-14T08:57:43;5.00;;;2.30;;
77602;SDS011;66771;52.434;17.056;2023-03-14T09:00:10;2.00;;;1.60;;
77602;SDS011;66771;52.434;17.056;2023-03-14T09:02:41;6.60;;;2.30;;
77602;SDS011;66771;52.434;17.056;2023-03-14T09:05:09;5.40;;;2.00;;
77602;SDS011;66771;52.434;17.056;2023-03-14T09:07:37;3.10;;;1.90;;
77602;SDS011;66771;52.434;17.056;2023-03-14T09:10:05;3.90;;;2.10;;
77602;SDS011;66771;52.434;17.056;2023-03-14T09:12:33;3.60;;;1.80;;
77602;SDS011;66771;52.434;17.056;2023-03-14T09:15:00;4.20;;;1.70;;
77602;SDS011;66771;52.434;17.056;2023-03-14T09:17:27;4.90;;;2.10;;
77602;SDS011;66771;52.434;17.056;2023-03-14T09:19:55;4.00;;;2.30;;
77602;SDS011;66771;52.434;17.056;2023-03-14T09:22:21;5.30;;;2.10;;
77602;SDS011;66771;52.434;17.056;2023-03-14T09:24:48;4.60;;;1.90;;
77602;SDS011;66771;52.434;17.056;2023-03-14T09:27:15;3.00;;;2.10;;
77602;SDS011;66771;52.434;17.056;2023-03-14T09:29:42;4.80;;;2.00;;
77602;SDS011;66771;52.434;17.056;2023-03-14T09:32:08;5.30;;;2.70;;
77602;SDS011;66771;52.434;17.056;2023-03-14T09:34:35;4.80;;;2.30;;
77602;SDS011;66771;52.434;17.056;2023-03-14T09:37:02;3.60;;;2.00;;
77602;SDS011;66771;52.434;17.056;2023-03-14T09:39:28;3.60;;;2.10;;
77602;SDS011;66771;52.434;17.056;2023-03-14T09:41:55;3.90;;;2.10;;
77602;SDS011;66771;52.434;17.056;2023-03-14T09:44:28;4.10;;;1.80;;
77602;SDS011;66771;52.434;17.056;2023-03-14T09:47:00;7.40;;;1.90;;
77602;SDS011;66771;52.434;17.056;2023-03-14T09:49:32;3.80;;;2.10;;
77602;SDS011;66771;52.434;17.056;2023-03-14T09:52:02;4.30;;;2.10;;
77602;SDS011;66771;52.434;17.056;2023-03-14T09:54:42;4.90;;;1.80;;
77602;SDS011;66771;52.434;17.056;2023-03-14T09:57:23;3.60;;;2.00;;
77602;SDS011;66771;52.434;17.056;2023-03-14T09:59:53;3.00;;;1.80;;
77602;SDS011;66771;52.434;17.056;2023-03-14T10:02:24;4.50;;;1.80;;
77602;SDS011;66771;52.434;17.056;2023-03-14T10:04:56;3.90;;;2.20;;
77602;SDS011;66771;52.434;17.056;2023-03-14T10:07:32;2.70;;;1.70;;
77602;SDS011;66771;52.434;17.056;2023-03-14T10:09:59;6.30;;;2.40;;
77602;SDS011;66771;52.434;17.056;2023-03-14T10:12:34;4.00;;;2.20;;
77602;SDS011;66771;52.434;17.056;2023-03-14T10:15:09;5.10;;;2.40;;
77602;SDS011;66771;52.434;17.056;2023-03-14T10:25:38;4.70;;;2.20;;
77602;SDS011;66771;52.434;17.056;2023-03-14T10:28:26;7.60;;;2.50;;
77602;SDS011;66771;52.434;17.056;2023-03-14T10:30:56;4.00;;;2.20;;
77602;SDS011;66771;52.434;17.056;2023-03-14T10:33:25;6.40;;;2.50;;
77602;SDS011;66771;52.434;17.056;2023-03-14T10:35:55;4.90;;;2.40;;
77602;SDS011;66771;52.434;17.056;2023-03-14T10:38:42;4.00;;;2.10;;
77602;SDS011;66771;52.434;17.056;2023-03-14T10:41:27;3.30;;;2.10;;
77602;SDS011;66771;52.434;17.056;2023-03-14T10:43:58;4.90;;;2.30;;
77602;SDS011;66771;52.434;17.056;2023-03-14T10:46:26;3.80;;;2.00;;
77602;SDS011;66771;52.434;17.056;2023-03-14T10:49:23;5.50;;;2.20;;
77602;SDS011;66771;52.434;17.056;2023-03-14T10:51:54;4.90;;;2.10;;
77602;SDS011;66771;52.434;17.056;2023-03-14T10:54:22;4.20;;;1.70;;
77602;SDS011;66771;52.434;17.056;2023-03-14T10:56:59;6.80;;;2.00;;
77602;SDS011;66771;52.434;17.056;2023-03-14T10:59:27;5.80;;;2.50;;
77602;SDS011;66771;52.434;17.056;2023-03-14T11:02:22;7.60;;;2.40;;
77602;SDS011;66771;52.434;17.056;2023-03-14T11:10:14;5.10;;;2.60;;
77602;SDS011;66771;52.434;17.056;2023-03-14T11:13:16;7.70;;;2.70;;
77602;SDS011;66771;52.434;17.056;2023-03-14T11:24:41;6.20;;;3.10;;
77602;SDS011;66771;52.434;17.056;2023-03-14T11:27:22;5.70;;;2.90;;
77602;SDS011;66771;52.434;17.056;2023-03-14T11:35:41;6.10;;;3.00;;
77602;SDS011;66771;52.434;17.056;2023-03-14T11:41:01;5.80;;;2.40;;
77602;SDS011;66771;52.434;17.056;2023-03-14T11:43:35;4.20;;;2.70;;
77602;SDS011;66771;52.434;17.056;2023-03-14T11:46:09;6.50;;;2.80;;
77602;SDS011;66771;52.434;17.056;2023-03-14T11:48:43;5.30;;;3.20;;
77602;SDS011;66771;52.434;17.056;2023-03-14T11:51:23;5.50;;;3.10;;
77602;SDS011;66771;52.434;17.056;2023-03-14T11:53:57;5.30;;;2.80;;
77602;SDS011;66771;52.434;17.056;2023-03-14T11:56:37;6.00;;;2.50;;
77602;SDS011;66771;52.434;17.056;2023-03-14T11:59:23;4.80;;;3.00;;
77602;SDS011;66771;52.434;17.056;2023-03-14T12:02:00;7.90;;;3.20;;
77602;SDS011;66771;52.434;17.056;2023-03-14T12:07:02;7.30;;;3.10;;
77602;SDS011;66771;52.434;17.056;2023-03-14T12:09:33;6.10;;;3.20;;
77602;SDS011;66771;52.434;17.056;2023-03-14T12:12:01;6.90;;;2.70;;
77602;SDS011;66771;52.434;17.056;2023-03-14T12:14:30;6.80;;;2.90;;
77602;SDS011;66771;52.434;17.056;2023-03-14T12:17:13;8.10;;;3.50;;
77602;SDS011;66771;52.434;17.056;2023-03-14T12:19:46;5.50;;;3.20;;
77602;SDS011;66771;52.434;17.056;2023-03-14T12:22:30;6.90;;;2.90;;
77602;SDS011;66771;52.434;17.056;2023-03-14T12:25:44;8.40;;;2.80;;
77602;SDS011;66771;52.434;17.056;2023-03-14T12:30:27;5.50;;;2.80;;
77602;SDS011;66771;52.434;17.056;2023-03-14T12:38:15;4.20;;;2.20;;
77602;SDS011;66771;52.434;17.056;2023-03-14T12:43:38;5.90;;;1.90;;
77602;SDS011;66771;52.434;17.056;2023-03-14T12:48:45;4.80;;;2.30;;
77602;SDS011;66771;52.434;17.056;2023-03-14T12:51:18;4.60;;;1.90;;
77602;SDS011;66771;52.434;17.056;2023-03-14T12:59:11;4.40;;;1.70;;
77602;SDS011;66771;52.434;17.056;2023-03-14T13:01:54;2.30;;;1.40;;
77602;SDS011;66771;52.434;17.056;2023-03-14T13:04:27;3.80;;;1.50;;
77602;SDS011;66771;52.434;17.056;2023-03-14T13:06:58;2.00;;;1.20;;
77602;SDS011;66771;52.434;17.056;2023-03-14T13:12:11;2.60;;;1.20;;
77602;SDS011;66771;52.434;17.056;2023-03-14T13:14:47;3.50;;;1.20;;
77602;SDS011;66771;52.434;17.056;2023-03-14T13:17:19;3.30;;;1.60;;
77602;SDS011;66771;52.434;17.056;2023-03-14T13:19:53;2.90;;;1.20;;
77602;SDS011;66771;52.434;17.056;2023-03-14T13:22:26;3.60;;;1.00;;
77602;SDS011;66771;52.434;17.056;2023-03-14T13:25:02;1.80;;;1.00;;
77602;SDS011;66771;52.434;17.056;2023-03-14T13:27:33;2.30;;;1.20;;
77602;SDS011;66771;52.434;17.056;2023-03-14T13:30:05;3.70;;;1.00;;
77602;SDS011;66771;52.434;17.056;2023-03-14T13:32:44;4.90;;;1.10;;
77602;SDS011;66771;52.434;17.056;2023-03-14T13:35:14;5.60;;;1.30;;
77602;SDS011;66771;52.434;17.056;2023-03-14T13:37:56;2.30;;;1.30;;
77602;SDS011;66771;52.434;17.056;2023-03-14T13:40:31;2.70;;;1.20;;
77602;SDS011;66771;52.434;17.056;2023-03-14T13:43:11;3.20;;;1.30;;
77602;SDS011;66771;52.434;17.056;2023-03-14T13:46:24;2.30;;;1.20;;
77602;SDS011;66771;52.434;17.056;2023-03-14T13:48:34;1.80;;;1.20;;
77602;SDS011;66771;52.434;17.056;2023-03-14T13:51:10;3.60;;;1.30;;
77602;SDS011;66771;52.434;17.056;2023-03-14T13:53:46;2.30;;;1.20;;
77602;SDS011;66771;52.434;17.056;2023-03-14T13:56:22;2.80;;;1.30;;
77602;SDS011;66771;52.434;17.056;2023-03-14T13:58:50;3.70;;;1.70;;
77602;SDS011;66771;52.434;17.056;2023-03-14T14:01:22;3.30;;;1.20;;
77602;SDS011;66771;52.434;17.056;2023-03-14T14:04:09;4.40;;;1.60;;
77602;SDS011;66771;52.434;17.056;2023-03-14T14:06:58;3.30;;;1.60;;
77602;SDS011;66771;52.434;17.056;2023-03-14T14:09:27;4.00;;;1.50;;
77602;SDS011;66771;52.434;17.056;2023-03-14T14:14:32;4.40;;;1.90;;
77602;SDS011;66771;52.434;17.056;2023-03-14T14:17:08;4.70;;;1.90;;
77602;SDS011;66771;52.434;17.056;2023-03-14T14:19:37;3.90;;;1.50;;
77602;SDS011;66771;52.434;17.056;2023-03-14T14:22:06;3.30;;;1.50;;
77602;SDS011;66771;52.434;17.056;2023-03-14T14:24:37;4.40;;;1.80;;
77602;SDS011;66771;52.434;17.056;2023-03-14T14:27:10;3.60;;;1.80;;
77602;SDS011;66771;52.434;17.056;2023-03-14T14:29:42;3.10;;;1.60;;
77602;SDS011;66771;52.434;17.056;2023-03-14T14:32:13;4.00;;;1.70;;
77602;SDS011;66771;52.434;17.056;2023-03-14T14:34:45;4.20;;;2.10;;
77602;SDS011;66771;52.434;17.056;2023-03-14T14:37:19;4.20;;;1.60;;
77602;SDS011;66771;52.434;17.056;2023-03-14T14:39:48;4.90;;;1.50;;
77602;SDS011;66771;52.434;17.056;2023-03-14T14:42:19;3.00;;;1.60;;
77602;SDS011;66771;52.434;17.056;2023-03-14T14:44:48;3.10;;;1.50;;
77602;SDS011;66771;52.434;17.056;2023-03-14T14:47:18;3.70;;;1.80;;
77602;SDS011;66771;52.434;17.056;2023-03-14T14:49:49;2.70;;;1.40;;
77602;SDS011;66771;52.434;17.056;2023-03-14T14:55:00;2.80;;;1.30;;
77602;SDS011;66771;52.434;17.056;2023-03-14T14:57:30;6.10;;;1.40;;
77602;SDS011;66771;52.434;17.056;2023-03-14T15:00:17;3.00;;;1.40;;
77602;SDS011;66771;52.434;17.056;2023-03-14T15:02:55;5.70;;;1.40;;
77602;SDS011;66771;52.434;17.056;2023-03-14T15:05:27;4.40;;;1.50;;
77602;SDS011;66771;52.434;17.056;2023-03-14T15:07:57;4.00;;;1.30;;
77602;SDS011;66771;52.434;17.056;2023-03-14T15:10:24;2.50;;;1.30;;
77602;SDS011;66771;52.434;17.056;2023-03-14T15:12:51;4.00;;;1.60;;
77602;SDS011;66771;52.434;17.056;2023-03-14T15:15:18;5.80;;;1.50;;
77602;SDS011;66771;52.434;17.056;2023-03-14T15:17:45;2.90;;;1.20;;
77602;SDS011;66771;52.434;17.056;2023-03-14T15:20:13;3.90;;;1.70;;
77602;SDS011;66771;52.434;17.056;2023-03-14T15:22:41;6.30;;;1.80;;
77602;SDS011;66771;52.434;17.056;2023-03-14T15:25:09;4.00;;;2.10;;
77602;SDS011;66771;52.434;17.056;2023-03-14T15:27:36;4.80;;;2.20;;
77602;SDS011;66771;52.434;17.056;2023-03-14T15:30:10;3.00;;;1.90;;
77602;SDS011;66771;52.434;17.056;2023-03-14T15:32:39;4.50;;;1.90;;
77602;SDS011;66771;52.434;17.056;2023-03-14T15:35:06;8.10;;;2.60;;
77602;SDS011;66771;52.434;17.056;2023-03-14T15:37:34;5.00;;;2.10;;
77602;SDS011;66771;52.434;17.056;2023-03-14T15:40:02;4.20;;;2.40;;
77602;SDS011;66771;52.434;17.056;2023-03-14T15:42:37;6.10;;;2.80;;
77602;SDS011;66771;52.434;17.056;2023-03-14T15:45:05;4.40;;;2.60;;
77602;SDS011;66771;52.434;17.056;2023-03-14T15:47:32;7.40;;;2.60;;
77602;SDS011;66771;52.434;17.056;2023-03-14T15:49:59;5.20;;;2.80;;
77602;SDS011;66771;52.434;17.056;2023-03-14T15:52:26;7.10;;;2.80;;
77602;SDS011;66771;52.434;17.056;2023-03-14T15:54:52;4.90;;;3.00;;
77602;SDS011;66771;52.434;17.056;2023-03-14T15:57:19;6.00;;;3.00;;
77602;SDS011;66771;52.434;17.056;2023-03-14T15:59:46;5.00;;;3.20;;
77602;SDS011;66771;52.434;17.056;2023-03-14T16:02:13;4.10;;;2.80;;
77602;SDS011;66771;52.434;17.056;2023-03-14T16:04:39;5.70;;;3.10;;
77602;SDS011;66771;52.434;17.056;2023-03-14T16:07:07;7.70;;;3.40;;
77602;SDS011;66771;52.434;17.056;2023-03-14T16:09:34;5.40;;;3.10;;
77602;SDS011;66771;52.434;17.056;2023-03-14T16:12:02;5.40;;;3.00;;
77602;SDS011;66771;52.434;17.056;2023-03-14T16:14:31;6.20;;;3.00;;
77602;SDS011;66771;52.434;17.056;2023-03-14T16:16:57;5.40;;;2.80;;
77602;SDS011;66771;52.434;17.056;2023-03-14T16:19:27;8.80;;;2.80;;